Time;durP1;ratioP1;P1;durP2;ratioP2;P2;SDS_P1;SDS_P2;PMS_P1;PMS_P2;Temp;Humidity;BMP_temperature;BMP_pressure;BME280_temperature;BME280_humidity;BME280_pressure;Samples;Min_cycle;Max_cycle;Signal;HPM_P1;HPM_P2
2022/05/07 00:00:20;;;;;;;11.38;6.03;;;;;;;11.36;nan;-24134.41;4888363;29;20184;-69
2022/05/07 00:02:45;;;;;;;8.15;5.47;;;;;;;11.62;nan;-24141.44;4887876;29;20236;-66
2022/05/07 00:05:12;;;;;;;7.85;5.38;;;;;;;11.67;nan;-24142.84;4890178;29;20187;-71
2022/05/07 00:07:37;;;;;;;8.45;5.35;;;;;;;11.29;nan;-24132.44;4903926;29;20668;-67
2022/05/07 00:10:03;;;;;;;9.80;5.70;;;;;;;11.57;nan;-24140.03;4888668;29;20185;-67
2022/05/07 00:12:29;;;;;;;7.85;4.97;;;;;;;11.57;nan;-24140.03;4887694;29;21653;-67
2022/05/07 00:14:54;;;;;;;10.48;5.78;;;;;;;11.24;nan;-24131.03;4900622;29;20188;-69
2022/05/07 00:20:04;;;;;;;11.70;5.70;;;;;;;11.37;nan;-24134.69;4888090;29;20317;-69
2022/05/07 00:22:29;;;;;;;7.63;5.65;;;;;;;11.50;nan;-24138.34;4887938;29;20184;-66
2022/05/07 00:24:55;;;;;;;9.70;6.00;;;;;;;11.13;nan;-24127.78;4889046;29;20227;-67
2022/05/07 00:27:20;;;;;;;9.80;5.95;;;;;;;11.39;nan;-24135.09;4889494;29;20196;-68
2022/05/07 00:29:46;;;;;;;11.05;5.85;;;;;;;11.33;nan;-24133.41;4888843;29;20188;-69
2022/05/07 00:32:11;;;;;;;11.52;6.45;;;;;;;11.48;nan;-24137.78;4872507;29;20538;-67
2022/05/07 00:34:36;;;;;;;10.07;5.90;;;;;;;11.67;nan;-24142.84;4888448;29;20184;-68
2022/05/07 00:37:02;;;;;;;10.45;6.15;;;;;;;11.56;nan;-24139.91;4888132;29;20187;-67
2022/05/07 00:39:28;;;;;;;11.02;6.47;;;;;;;11.33;nan;-24133.41;4888146;29;20211;-69
2022/05/07 00:41:53;;;;;;;9.95;6.03;;;;;;;11.07;nan;-24126.22;4890426;29;20184;-68
2022/05/07 00:44:21;;;;;;;10.57;6.53;;;;;;;10.97;nan;-24123.41;4888494;29;20190;-69
2022/05/07 00:46:48;;;;;;;10.00;6.30;;;;;;;11.06;nan;-24126.09;4888664;29;20180;-70
2022/05/07 00:49:13;;;;;;;8.88;5.88;;;;;;;11.16;nan;-24128.63;4887788;29;20180;-67
2022/05/07 00:51:40;;;;;;;11.35;6.28;;;;;;;10.96;nan;-24123.13;4887743;29;20210;-69
2022/05/07 00:54:08;;;;;;;10.75;5.90;;;;;;;10.08;nan;-24098.56;4889678;29;20566;-70
2022/05/07 00:56:35;;;;;;;10.15;5.90;;;;;;;11.25;nan;-24131.16;4887109;29;20226;-68
2022/05/07 00:59:01;;;;;;;9.57;6.20;;;;;;;11.36;nan;-24134.41;4888519;29;20267;-70
2022/05/07 01:01:27;;;;;;;10.60;6.33;;;;;;;11.30;nan;-24132.72;4886604;29;20635;-68
2022/05/07 01:03:53;;;;;;;10.50;6.50;;;;;;;10.96;nan;-24123.13;4886865;29;20196;-66
2022/05/07 01:06:20;;;;;;;9.60;6.60;;;;;;;11.16;nan;-24128.75;4888340;29;20176;-67
2022/05/07 01:08:47;;;;;;;11.88;7.07;;;;;;;11.24;nan;-24130.88;4886053;29;20184;-67
2022/05/07 01:11:14;;;;;;;10.13;7.00;;;;;;;11.20;nan;-24129.75;4887064;29;20183;-69
2022/05/07 01:13:42;;;;;;;9.77;6.50;;;;;;;10.82;nan;-24119.19;4886556;29;20204;-68
2022/05/07 01:16:08;;;;;;;10.30;6.97;;;;;;;10.83;nan;-24119.59;4889291;29;20747;-69
2022/05/07 01:18:33;;;;;;;10.23;7.13;;;;;;;11.00;nan;-24124.41;4888095;29;20314;-66
2022/05/07 01:20:59;;;;;;;11.93;6.95;;;;;;;11.10;nan;-24126.94;4888562;29;20714;-68
2022/05/07 01:23:27;;;;;;;12.80;6.82;;;;;;;10.94;nan;-24122.69;4888199;29;20655;-66
2022/05/07 01:25:57;;;;;;;10.07;6.80;;;;;;;11.04;nan;-24125.38;4887594;29;20207;-65
2022/05/07 01:28:23;;;;;;;9.60;6.80;;;;;;;11.12;nan;-24127.63;4889443;29;20188;-69
2022/05/07 01:30:48;;;;;;;10.38;6.60;;;;;;;10.77;nan;-24117.78;4888997;29;20196;-69
2022/05/07 01:33:14;;;;;;;10.27;6.55;;;;;;;10.93;nan;-24122.41;4888282;29;20183;-70
2022/05/07 01:35:39;;;;;;;10.80;6.90;;;;;;;10.38;nan;-24107.03;4887788;29;20616;-69
2022/05/07 01:38:05;;;;;;;12.98;7.53;;;;;;;10.84;nan;-24119.88;4885202;29;20187;-68
2022/05/07 01:40:31;;;;;;;9.93;6.57;;;;;;;10.87;nan;-24120.72;4886004;29;20228;-66
2022/05/07 01:42:56;;;;;;;8.90;6.45;;;;;;;10.51;nan;-24110.72;4885613;29;20711;-68
2022/05/07 01:45:22;;;;;;;11.50;6.73;;;;;;;10.74;nan;-24116.91;4886014;29;20184;-68
2022/05/07 01:50:31;;;;;;;9.33;6.20;;;;;;;10.70;nan;-24115.94;4887077;29;20276;-68
2022/05/07 01:52:57;;;;;;;12.57;6.90;;;;;;;10.74;nan;-24117.06;4890152;29;20192;-68
2022/05/07 01:55:23;;;;;;;10.10;6.97;;;;;;;10.51;nan;-24110.72;4888281;29;20222;-67
2022/05/07 01:57:48;;;;;;;12.15;6.30;;;;;;;10.51;nan;-24110.72;4887906;29;20188;-69
2022/05/07 02:00:14;;;;;;;11.03;7.07;;;;;;;10.37;nan;-24106.75;4886448;29;20199;-69
2022/05/07 02:02:39;;;;;;;11.97;6.80;;;;;;;10.46;nan;-24109.31;4886073;29;20243;-69
2022/05/07 02:05:06;;;;;;;9.40;7.20;;;;;;;10.29;nan;-24104.38;4885331;29;21515;-67
2022/05/07 02:07:32;;;;;;;12.87;6.50;;;;;;;10.37;nan;-24106.75;4886438;29;20247;-69
2022/05/07 02:09:58;;;;;;;8.47;6.00;;;;;;;10.51;nan;-24110.56;4888175;29;20571;-69
2022/05/07 02:12:23;;;;;;;12.00;6.77;;;;;;;10.33;nan;-24105.50;4888132;29;20640;-67
2022/05/07 02:14:48;;;;;;;10.83;6.47;;;;;;;10.44;nan;-24108.75;4887161;29;20582;-68
2022/05/07 02:17:14;;;;;;;10.27;6.43;;;;;;;10.31;nan;-24105.06;4886563;29;20190;-67
2022/05/07 02:19:39;;;;;;;9.50;6.30;;;;;;;10.34;nan;-24105.78;4900977;29;20203;-68
2022/05/07 02:22:05;;;;;;;10.90;6.60;;;;;;;10.09;nan;-24099.00;4885515;29;20207;-67
2022/05/07 02:24:30;;;;;;;11.60;6.67;;;;;;;10.07;nan;-24098.28;4889644;29;20184;-67
2022/05/07 02:26:56;;;;;;;10.67;6.57;;;;;;;10.19;nan;-24101.81;4888993;29;20240;-69
2022/05/07 02:29:21;;;;;;;10.80;7.23;;;;;;;10.30;nan;-24104.66;4901356;29;20204;-68
2022/05/07 02:32:03;;;;;;;10.20;6.83;;;;;;;10.06;nan;-24098.16;4900323;29;20188;-69
2022/05/07 02:34:33;;;;;;;9.20;6.47;;;;;;;10.02;nan;-24097.03;4887184;29;20215;-68
2022/05/07 02:36:59;;;;;;;12.43;7.07;;;;;;;9.93;nan;-24094.34;4889850;29;20619;-70
2022/05/07 02:39:25;;;;;;;14.27;7.53;;;;;;;10.24;nan;-24103.09;4888820;29;20208;-66
2022/05/07 02:44:36;;;;;;;9.83;6.70;;;;;;;9.94;nan;-24094.63;4890235;29;20191;-67
2022/05/07 02:47:01;;;;;;;10.77;6.70;;;;;;;;;;4888102;29;20199;-67
2022/05/07 02:49:26;;;;;;;11.23;7.03;;;;;;;9.91;nan;-24093.78;4887733;29;20188;-67
2022/05/07 02:51:52;;;;;;;9.27;6.80;;;;;;;9.62;nan;-24085.72;4888525;29;20198;-68
2022/05/07 02:54:17;;;;;;;10.47;7.40;;;;;;;10.05;nan;-24097.88;4889579;29;20184;-69
2022/05/07 02:56:43;;;;;;;10.90;6.97;;;;;;;10.27;nan;-24103.94;4888640;29;20218;-67
2022/05/07 02:59:08;;;;;;;9.43;7.40;;;;;;;10.22;nan;-24102.38;4887900;29;20223;-66
2022/05/07 03:01:34;;;;;;;10.47;6.77;;;;;;;10.28;nan;-24104.22;4887955;29;20665;-66
2022/05/07 03:03:59;;;;;;;14.43;7.40;;;;;;;9.92;nan;-24094.06;4891894;29;20235;-68
2022/05/07 03:06:24;;;;;;;10.23;7.10;;;;;;;10.08;nan;-24098.56;4893172;29;20213;-66
2022/05/07 03:08:50;;;;;;;12.73;7.63;;;;;;;10.04;nan;-24097.44;4894247;29;20652;-68
2022/05/07 03:11:15;;;;;;;12.47;7.30;;;;;;;9.77;nan;-24090.09;4889437;29;20567;-68
2022/05/07 03:13:41;;;;;;;11.87;7.30;;;;;;;9.75;nan;-24089.53;4891889;29;20283;-68
2022/05/07 03:16:07;;;;;;;10.40;7.20;;;;;;;10.21;nan;-24102.09;4889216;29;20212;-69
2022/05/07 03:18:32;;;;;;;10.57;7.20;;;;;;;10.36;nan;-24106.34;4888577;29;20213;-67
2022/05/07 03:20:58;;;;;;;12.37;7.40;;;;;;;10.56;nan;-24112.13;4888863;29;20189;-67
2022/05/07 03:23:27;;;;;;;10.20;6.73;;;;;;;10.67;nan;-24114.94;4889008;29;20648;-68
2022/05/07 03:25:53;;;;;;;10.53;6.90;;;;;;;10.74;nan;-24116.91;4888305;29;20184;-69
2022/05/07 03:28:18;;;;;;;12.65;7.03;;;;;;;11.23;nan;-24130.75;4890317;29;20199;-67
2022/05/07 03:30:44;;;;;;;10.03;6.83;;;;;;;11.90;nan;-24149.47;4890068;29;20194;-70
2022/05/07 03:33:09;;;;;;;9.10;6.43;;;;;;;12.40;nan;-24163.41;4888909;29;20267;-68
2022/05/07 03:35:35;;;;;;;11.77;6.85;;;;;;;13.04;nan;-24181.13;4872654;29;20239;-70
2022/05/07 03:38:00;;;;;;;7.85;6.20;;;;;;;13.33;nan;-24189.00;4904380;29;20180;-67
2022/05/07 03:40:27;;;;;;;8.27;5.57;;;;;;;14.29;nan;-24215.69;4888355;29;20574;-68
2022/05/07 03:42:53;;;;;;;8.90;6.25;;;;;;;14.72;nan;-24227.59;4888079;29;20184;-67
2022/05/07 03:45:19;;;;;;;8.40;6.13;;;;;;;15.35;nan;-24245.25;4887377;29;20661;-68
2022/05/07 03:47:45;;;;;;;9.40;5.75;;;;;;;15.83;nan;-24258.56;4888134;29;20227;-68
2022/05/07 03:50:11;;;;;;;14.00;5.65;;;;;;;16.43;nan;-24274.91;4888205;29;20384;-67
2022/05/07 03:55:21;;;;;;;7.22;5.78;;;;;;;17.07;nan;-24292.66;4887613;29;20218;-69
2022/05/07 03:57:47;;;;;;;12.10;6.35;;;;;;;17.16;nan;-24295.31;4888484;29;20188;-66
2022/05/07 04:00:13;;;;;;;10.50;5.75;;;;;;;17.35;nan;-24300.34;4888000;29;20180;-67
2022/05/07 04:02:38;;;;;;;10.48;5.53;;;;;;;17.55;nan;-24306.06;4887707;29;20295;-69
2022/05/07 04:05:04;;;;;;;8.07;5.03;;;;;;;17.66;nan;-24309.00;4889264;29;20668;-68
2022/05/07 04:07:30;;;;;;;10.07;5.82;;;;;;;17.61;nan;-24307.59;4890300;29;20279;-69
2022/05/07 04:09:55;;;;;;;6.80;5.45;;;;;;;18.06;nan;-24320.16;4889828;29;20199;-67
2022/05/07 04:12:21;;;;;;;7.25;5.50;;;;;;;18.29;nan;-24326.41;4888536;29;20610;-69
2022/05/07 04:14:47;;;;;;;11.88;5.57;;;;;;;19.02;nan;-24346.47;4889345;29;20236;-67
2022/05/07 04:17:12;;;;;;;7.68;5.05;;;;;;;18.76;nan;-24339.25;4890410;29;20184;-68
2022/05/07 04:19:38;;;;;;;6.38;5.18;;;;;;;18.23;nan;-24324.59;4890438;29;20645;-67
2022/05/07 04:22:03;;;;;;;7.60;5.70;;;;;;;18.13;nan;-24321.97;4890274;29;20239;-69
2022/05/07 04:24:29;;;;;;;10.52;5.85;;;;;;;18.29;nan;-24326.41;4892867;29;20271;-66
2022/05/07 04:26:55;;;;;;;9.95;6.00;;;;;;;18.55;nan;-24333.53;4890521;29;20283;-69
2022/05/07 04:29:20;;;;;;;10.20;6.68;;;;;;;18.07;nan;-24320.28;4904636;29;20702;-67
2022/05/07 04:31:46;;;;;;;10.68;6.40;;;;;;;17.51;nan;-24304.94;4890289;29;20180;-69
2022/05/07 04:34:11;;;;;;;10.13;6.80;;;;;;;17.11;nan;-24293.91;4890976;29;20176;-70
2022/05/07 04:36:37;;;;;;;8.73;6.38;;;;;;;16.97;nan;-24290.00;4890584;29;20240;-70
2022/05/07 04:39:03;;;;;;;8.95;6.00;;;;;;;17.05;nan;-24292.09;4890282;29;20194;-68
2022/05/07 04:41:28;;;;;;;9.85;6.90;;;;;;;17.39;nan;-24301.59;4906517;29;20188;-67
2022/05/07 04:43:54;;;;;;;9.18;6.35;;;;;;;17.82;nan;-24313.31;4890807;29;20691;-67
2022/05/07 04:46:19;;;;;;;14.30;7.35;;;;;;;17.60;nan;-24307.47;4888809;29;20236;-67
2022/05/07 04:48:46;;;;;;;11.32;7.22;;;;;;;18.21;nan;-24324.19;4887737;29;20180;-65
2022/05/07 04:51:12;;;;;;;10.88;6.80;;;;;;;18.41;nan;-24329.75;4887826;29;21373;-68
2022/05/07 04:53:37;;;;;;;11.10;6.57;;;;;;;18.43;nan;-24330.31;4885530;29;20271;-66
2022/05/07 04:56:03;;;;;;;10.95;6.88;;;;;;;17.78;nan;-24312.19;4888497;29;20734;-70
2022/05/07 04:58:29;;;;;;;10.90;7.18;;;;;;;17.97;nan;-24317.50;4887367;29;20196;-68
2022/05/07 05:00:54;;;;;;;11.80;6.82;;;;;;;18.37;nan;-24328.66;4887336;29;20231;-67
2022/05/07 05:03:20;;;;;;;10.60;6.53;;;;;;;18.72;nan;-24338.25;4890245;29;20574;-67
2022/05/07 05:05:45;;;;;;;8.65;6.03;;;;;;;18.59;nan;-24334.50;4888833;29;20259;-69
2022/05/07 05:08:11;;;;;;;10.30;6.97;;;;;;;18.51;nan;-24332.56;4887146;29;20290;-68
2022/05/07 05:10:36;;;;;;;11.13;7.18;;;;;;;18.40;nan;-24329.34;4888186;29;20670;-66
2022/05/07 05:13:02;;;;;;;11.55;7.13;;;;;;;18.07;nan;-24320.28;4887666;29;20184;-66
2022/05/07 05:15:27;;;;;;;9.93;6.57;;;;;;;17.73;nan;-24310.94;4887089;29;20578;-68
2022/05/07 05:17:53;;;;;;;11.05;6.68;;;;;;;17.32;nan;-24299.63;4888082;29;20228;-68
2022/05/07 05:20:18;;;;;;;11.18;7.65;;;;;;;17.08;nan;-24293.09;4886915;29;20181;-68
2022/05/07 05:22:48;;;;;;;9.93;6.60;;;;;;;16.94;nan;-24289.16;4889143;29;20184;-68
2022/05/07 05:25:14;;;;;;;11.15;6.68;;;;;;;16.76;nan;-24284.28;4888197;29;20184;-68
2022/05/07 05:27:40;;;;;;;9.57;7.20;;;;;;;16.66;nan;-24281.50;4886891;29;20195;-69
2022/05/07 05:30:06;;;;;;;10.98;7.47;;;;;;;16.55;nan;-24278.41;4886287;29;20207;-72
2022/05/07 05:32:31;;;;;;;10.40;7.18;;;;;;;16.19;nan;-24268.34;4886639;29;20198;-67
2022/05/07 05:34:56;;;;;;;9.88;7.57;;;;;;;16.16;nan;-24267.50;4889586;29;20625;-67
2022/05/07 05:37:22;;;;;;;10.18;7.22;;;;;;;16.26;nan;-24270.44;4886585;29;20656;-69
2022/05/07 05:39:47;;;;;;;12.27;7.75;;;;;;;15.84;nan;-24258.84;4882535;29;20283;-70
2022/05/07 05:42:13;;;;;;;11.52;7.75;;;;;;;15.63;nan;-24252.94;4882660;29;20183;-66
2022/05/07 05:44:39;;;;;;;11.18;8.23;;;;;;;15.93;nan;-24261.06;4885657;29;20176;-68
2022/05/07 05:47:06;;;;;;;11.50;8.23;;;;;;;15.70;nan;-24254.78;4884369;29;20195;-68
2022/05/07 05:49:33;;;;;;;11.40;7.88;;;;;;;15.63;nan;-24252.94;4884817;29;20196;-69
2022/05/07 05:52:01;;;;;;;13.38;8.10;;;;;;;15.54;nan;-24250.31;4866797;29;20188;-70
2022/05/07 05:54:27;;;;;;;10.70;7.82;;;;;;;15.31;nan;-24244.00;4886452;29;20231;-68
2022/05/07 05:56:52;;;;;;;11.13;7.72;;;;;;;15.38;nan;-24245.94;4881622;29;20212;-69
2022/05/07 05:59:18;;;;;;;12.15;7.72;;;;;;;15.54;nan;-24250.44;4884861;29;20192;-66
2022/05/07 06:01:43;;;;;;;11.30;7.80;;;;;;;16.03;nan;-24263.88;4885152;29;20348;-67
2022/05/07 06:04:09;;;;;;;10.57;8.10;;;;;;;16.23;nan;-24269.59;4886041;29;20184;-66
2022/05/07 06:06:34;;;;;;;10.65;7.30;;;;;;;16.31;nan;-24271.69;4896031;29;20278;-68
2022/05/07 06:09:00;;;;;;;9.95;6.45;;;;;;;16.03;nan;-24264.00;4885065;29;20218;-69
2022/05/07 06:11:25;;;;;;;16.17;7.18;;;;;;;16.10;nan;-24265.81;4886364;29;20227;-67
2022/05/07 06:13:50;;;;;;;10.02;6.82;;;;;;;16.31;nan;-24271.84;4887641;29;20203;-67
2022/05/07 06:16:17;;;;;;;9.57;6.75;;;;;;;16.05;nan;-24264.44;4888454;29;20695;-66
2022/05/07 06:18:42;;;;;;;10.02;6.82;;;;;;;16.42;nan;-24274.63;4891108;29;20227;-66
2022/05/07 06:21:08;;;;;;;11.05;7.47;;;;;;;16.58;nan;-24279.25;4890339;29;20603;-65
2022/05/07 06:23:33;;;;;;;9.88;7.03;;;;;;;16.62;nan;-24280.38;4888791;29;20743;-69
2022/05/07 06:28:43;;;;;;;10.63;7.05;;;;;;;16.90;nan;-24287.91;4890378;29;20303;-68
2022/05/07 06:31:11;;;;;;;12.30;6.80;;;;;;;17.04;nan;-24291.97;4904574;29;20651;-70
2022/05/07 06:33:39;;;;;;;12.82;7.05;;;;;;;16.88;nan;-24287.34;4903982;29;20191;-67
2022/05/07 06:36:08;;;;;;;10.15;7.05;;;;;;;17.40;nan;-24301.88;4886821;29;20928;-68
2022/05/07 06:38:34;;;;;;;12.95;6.97;;;;;;;17.30;nan;-24298.94;4904473;29;20195;-56
2022/05/07 06:41:02;;;;;;;9.00;6.60;;;;;;;17.42;nan;-24302.28;4888398;29;20196;-51
2022/05/07 06:43:33;;;;;;;9.35;6.63;;;;;;;17.75;nan;-24311.38;4887135;29;21912;-49
2022/05/07 06:45:59;;;;;;;10.57;6.70;;;;;;;17.61;nan;-24307.59;4887290;29;20683;-53
2022/05/07 06:48:25;;;;;;;8.55;6.63;;;;;;;17.68;nan;-24309.56;4891848;29;20176;-50
2022/05/07 06:50:52;;;;;;;11.07;6.72;;;;;;;18.08;nan;-24320.72;4892591;29;21025;-49
2022/05/07 06:53:18;;;;;;;12.30;7.10;;;;;;;17.93;nan;-24316.38;4892234;29;20236;-52
2022/05/07 06:55:55;;;;;;;12.18;6.88;;;;;;;18.32;nan;-24327.13;4890618;29;20215;-53
2022/05/07 06:58:33;;;;;;;11.73;7.47;;;;;;;18.30;nan;-24326.56;4889083;29;20186;-52
2022/05/07 07:01:01;;;;;;;9.23;6.57;;;;;;;18.45;nan;-24330.88;4890035;29;20348;-53
2022/05/07 07:03:27;;;;;;;9.82;6.40;;;;;;;18.71;nan;-24338.00;4888216;29;20188;-51
2022/05/07 07:05:55;;;;;;;13.05;7.65;;;;;;;18.70;nan;-24337.56;4889418;29;20180;-52
2022/05/07 07:08:21;;;;;;;9.30;6.43;;;;;;;18.71;nan;-24338.00;4889946;29;20188;-51
2022/05/07 07:10:47;;;;;;;8.25;6.60;;;;;;;18.81;nan;-24340.78;4891062;29;20210;-54
2022/05/07 07:13:12;;;;;;;12.75;6.20;;;;;;;;;;4889287;29;20215;-51
2022/05/07 07:15:42;;;;;;;10.88;6.68;;;;;;;19.27;nan;-24353.28;4890278;29;20211;-54
2022/05/07 07:18:11;;;;;;;8.90;6.55;;;;;;;19.49;nan;-24359.28;4887312;29;20761;-53
2022/05/07 07:20:41;;;;;;;12.23;6.82;;;;;;;19.00;nan;-24345.78;4888240;29;20196;-53
2022/05/07 07:23:11;;;;;;;9.02;6.50;;;;;;;19.28;nan;-24353.56;4884900;29;20188;-50
2022/05/07 07:25:42;;;;;;;10.90;6.72;;;;;;;18.77;nan;-24339.66;4887233;29;20187;-51
2022/05/07 07:28:12;;;;;;;8.30;6.78;;;;;;;18.80;nan;-24340.34;4884468;29;20711;-53
2022/05/07 07:30:38;;;;;;;13.27;7.05;;;;;;;18.73;nan;-24338.53;4890871;29;20200;-54
2022/05/07 07:33:10;;;;;;;9.80;6.57;;;;;;;18.93;nan;-24343.97;4888670;29;20659;-50
2022/05/07 07:35:35;;;;;;;13.05;7.10;;;;;;;18.58;nan;-24334.22;4886611;29;20714;-55
2022/05/07 07:38:01;;;;;;;10.25;7.05;;;;;;;18.79;nan;-24340.06;4887837;29;20180;-50
2022/05/07 07:40:26;;;;;;;9.25;6.57;;;;;;;18.84;nan;-24341.59;4886945;29;20191;-52
2022/05/07 07:42:52;;;;;;;11.10;7.00;;;;;;;18.83;nan;-24341.19;4890288;29;20215;-52
2022/05/07 07:48:03;;;;;;;11.40;7.13;;;;;;;19.06;nan;-24347.44;4889867;29;20186;-51
2022/05/07 07:50:38;;;;;;;12.20;6.60;;;;;;;19.66;nan;-24364.00;4889846;29;20188;-54
2022/05/07 07:53:08;;;;;;;12.95;7.28;;;;;;;19.74;nan;-24366.22;4889209;29;20279;-50
2022/05/07 07:55:36;;;;;;;13.27;6.97;;;;;;;19.94;nan;-24371.78;4888855;29;20218;-53
2022/05/07 07:58:04;;;;;;;11.70;6.78;;;;;;;19.69;nan;-24364.97;4888006;29;20192;-54
2022/05/07 08:00:31;;;;;;;9.85;6.95;;;;;;;19.23;nan;-24352.19;4891068;29;20184;-51
2022/05/07 08:03:04;;;;;;;9.75;6.63;;;;;;;19.13;nan;-24349.53;4889248;29;20240;-52
2022/05/07 08:05:33;;;;;;;15.77;7.10;;;;;;;18.79;nan;-24340.22;4890204;29;20224;-53
2022/05/07 08:13:43;;;;;;;14.30;6.90;;;;;;;18.76;nan;-24339.25;4888012;29;20199;-50
2022/05/07 08:16:09;;;;;;;14.25;7.82;;;;;;;18.68;nan;-24337.16;4889106;29;20212;-50
2022/05/07 08:18:36;;;;;;;14.60;7.70;;;;;;;18.94;nan;-24344.25;4888155;29;20184;-51
2022/05/07 08:21:03;;;;;;;10.27;8.05;;;;;;;18.83;nan;-24341.19;4890253;29;20184;-51
2022/05/07 08:23:29;;;;;;;12.98;7.57;;;;;;;18.59;nan;-24334.63;4891434;29;20270;-53
2022/05/07 08:25:54;;;;;;;13.23;7.70;;;;;;;18.94;nan;-24344.25;4887389;29;20188;-53
2022/05/07 08:28:21;;;;;;;11.48;7.55;;;;;;;19.31;nan;-24354.53;4890397;29;20215;-50
2022/05/07 08:30:49;;;;;;;14.80;7.45;;;;;;;18.76;nan;-24339.25;4888896;29;20184;-53
2022/05/07 08:33:17;;;;;;;12.73;8.27;;;;;;;18.41;nan;-24329.63;4887162;29;20192;-49
2022/05/07 08:35:43;;;;;;;12.73;8.15;;;;;;;18.37;nan;-24328.50;4886711;29;20211;-50
2022/05/07 08:38:09;;;;;;;16.45;8.43;;;;;;;18.53;nan;-24333.13;4874185;29;20962;-49
2022/05/07 08:40:34;;;;;;;11.98;7.68;;;;;;;18.83;nan;-24341.19;4887556;29;20227;-52
2022/05/07 08:43:00;;;;;;;9.73;6.70;;;;;;;18.87;nan;-24342.31;4889550;29;20278;-53
2022/05/07 08:45:26;;;;;;;10.13;6.45;;;;;;;18.54;nan;-24333.38;4891091;29;20690;-51
2022/05/07 08:47:54;;;;;;;10.45;6.40;;;;;;;18.39;nan;-24329.22;4891208;29;20180;-49
2022/05/07 08:50:20;;;;;;;10.43;7.00;;;;;;;18.83;nan;-24341.31;4887970;29;20207;-54
2022/05/07 08:52:46;;;;;;;10.48;6.65;;;;;;;19.18;nan;-24350.78;4888073;29;20247;-59
2022/05/07 08:55:22;;;;;;;8.35;6.70;;;;;;;18.89;nan;-24342.84;4888530;29;20642;-50
2022/05/07 08:57:49;;;;;;;8.95;6.65;;;;;;;18.80;nan;-24340.50;4884936;29;22222;-51
2022/05/07 09:00:18;;;;;;;11.23;6.75;;;;;;;18.53;nan;-24333.13;4888012;29;20192;-49
2022/05/07 09:02:55;;;;;;;10.45;6.80;;;;;;;18.60;nan;-24334.91;4886206;29;20227;-50
2022/05/07 09:05:30;;;;;;;8.98;6.30;;;;;;;18.48;nan;-24331.56;4887407;29;20184;-51
2022/05/07 09:07:58;;;;;;;9.20;6.55;;;;;;;19.06;nan;-24347.59;4886089;29;20692;-52
2022/05/07 09:10:28;;;;;;;11.50;6.80;;;;;;;19.20;nan;-24351.34;4886765;29;20176;-52
2022/05/07 09:13:14;;;;;;;9.98;7.00;;;;;;;18.33;nan;-24327.53;4888564;29;20192;-57
2022/05/07 09:15:49;;;;;;;8.52;6.55;;;;;;;18.94;nan;-24344.38;4888052;29;20374;-50
2022/05/07 09:18:15;;;;;;;10.77;6.93;;;;;;;18.78;nan;-24339.78;4886123;29;20182;-50
2022/05/07 09:20:41;;;;;;;10.68;6.55;;;;;;;19.34;nan;-24355.38;4887688;29;20187;-53
2022/05/07 09:23:10;;;;;;;11.77;7.25;;;;;;;18.88;nan;-24342.56;4886069;29;21865;-54
2022/05/07 09:25:45;;;;;;;10.57;7.45;;;;;;;18.73;nan;-24338.41;4889521;29;20184;-50
2022/05/07 09:28:10;;;;;;;10.23;6.93;;;;;;;17.43;nan;-24302.72;4885558;29;20211;-51
2022/05/07 09:30:36;;;;;;;9.55;7.10;;;;;;;18.42;nan;-24329.91;4890582;29;20214;-50
2022/05/07 09:33:01;;;;;;;10.05;6.90;;;;;;;18.97;nan;-24345.09;4889200;29;20191;-50
2022/05/07 09:38:14;;;;;;;11.30;6.35;;;;;;;14.03;nan;-24208.66;4887809;29;20267;-50
2022/05/07 09:40:42;;;;;;;9.20;6.93;;;;;;;19.48;nan;-24359.13;4886875;29;20578;-51
2022/05/07 09:43:13;;;;;;;10.85;6.68;;;;;;;19.68;nan;-24364.69;4887183;29;20294;-53
2022/05/07 09:45:40;;;;;;;10.63;6.95;;;;;;;19.78;nan;-24367.47;4889123;29;20188;-53
2022/05/07 09:48:08;;;;;;;10.32;7.10;;;;;;;19.86;nan;-24369.56;4889397;29;20184;-50
2022/05/07 09:58:32;;;;;;;10.90;6.28;;;;;;;20.41;nan;-24384.56;4888248;29;20198;-50
2022/05/07 10:01:25;;;;;;;8.52;6.05;;;;;;;20.43;nan;-24385.13;4888029;29;20224;-51
2022/05/07 10:04:04;;;;;;;11.00;6.78;;;;;;;20.01;nan;-24373.59;4890138;29;20751;-51
2022/05/07 10:06:51;;;;;;;7.97;6.00;;;;;;;19.89;nan;-24370.25;4889453;29;20274;-53
2022/05/07 10:09:41;;;;;;;8.60;5.93;;;;;;;19.69;nan;-24364.84;4890562;29;20302;-53
2022/05/07 10:12:08;;;;;;;8.23;5.78;;;;;;;19.16;nan;-24350.38;4890692;29;20728;-54
2022/05/07 10:14:33;;;;;;;7.63;5.78;;;;;;;19.98;nan;-24372.91;4888941;29;20195;-48
2022/05/07 10:17:13;;;;;;;7.60;5.18;;;;;;;19.69;nan;-24364.97;4890843;29;20598;-49
2022/05/07 10:19:43;;;;;;;10.65;5.57;;;;;;;19.90;nan;-24370.53;4891784;29;20627;-50
2022/05/07 10:22:21;;;;;;;7.07;5.15;;;;;;;20.39;nan;-24384.16;4890480;29;20188;-52
2022/05/07 10:25:04;;;;;;;9.70;5.68;;;;;;;20.14;nan;-24377.34;4891183;29;20179;-51
2022/05/07 10:27:34;;;;;;;6.88;4.82;;;;;;;19.81;nan;-24368.31;4889323;29;20243;-52
2022/05/07 10:30:22;;;;;;;8.77;5.07;;;;;;;20.11;nan;-24376.50;4888922;29;20184;-50
2022/05/07 10:32:54;;;;;;;7.68;5.07;;;;;;;19.80;nan;-24367.91;4892674;29;20628;-52
2022/05/07 10:35:44;;;;;;;8.52;5.22;;;;;;;19.97;nan;-24372.63;4887432;29;20188;-54
2022/05/07 10:38:14;;;;;;;6.45;4.45;;;;;;;19.89;nan;-24370.25;4904480;29;20196;-52
2022/05/07 10:40:57;;;;;;;8.35;4.82;;;;;;;19.64;nan;-24363.59;4888196;29;20378;-50
2022/05/07 10:43:36;;;;;;;6.95;5.07;;;;;;;19.65;nan;-24363.72;4888872;29;20184;-47
2022/05/07 10:46:10;;;;;;;7.72;4.93;;;;;;;19.51;nan;-24359.84;4887481;29;20513;-51
2022/05/07 10:48:57;;;;;;;7.93;5.22;;;;;;;19.96;nan;-24372.22;4891367;29;20192;-50
2022/05/07 10:51:40;;;;;;;6.38;4.80;;;;;;;18.93;nan;-24343.97;4889953;29;20184;-50
2022/05/07 10:54:22;;;;;;;7.65;4.72;;;;;;;20.09;nan;-24375.97;4888754;29;20192;-51
2022/05/07 10:56:53;;;;;;;8.68;4.93;;;;;;;19.78;nan;-24367.34;4890043;29;20924;-50
2022/05/07 10:59:20;;;;;;;6.50;4.65;;;;;;;19.60;nan;-24362.34;4895254;29;20671;-51
2022/05/07 11:01:46;;;;;;;6.03;4.82;;;;;;;19.65;nan;-24363.72;4893521;29;20323;-57
2022/05/07 11:04:13;;;;;;;5.78;4.53;;;;;;;19.95;nan;-24372.06;4895319;29;20581;-53
2022/05/07 11:06:46;;;;;;;7.15;4.60;;;;;;;20.04;nan;-24374.44;4897187;29;20343;-51
2022/05/07 11:09:19;;;;;;;8.57;5.00;;;;;;;19.97;nan;-24372.63;4895004;29;20270;-53
2022/05/07 11:11:46;;;;;;;6.85;4.68;;;;;;;20.08;nan;-24375.69;4893444;29;20686;-51
2022/05/07 11:14:32;;;;;;;8.57;4.53;;;;;;;20.17;nan;-24378.19;4894307;29;20180;-52
2022/05/07 11:16:59;;;;;;;6.57;4.47;;;;;;;19.84;nan;-24369.00;4895044;29;20212;-53
2022/05/07 11:19:33;;;;;;;7.25;4.78;;;;;;;19.74;nan;-24366.22;4894525;29;20191;-51
2022/05/07 11:22:00;;;;;;;6.68;4.78;;;;;;;19.78;nan;-24367.34;4892754;29;20187;-51
2022/05/07 11:24:30;;;;;;;9.52;4.93;;;;;;;19.74;nan;-24366.38;4893591;29;20656;-50
2022/05/07 11:27:02;;;;;;;6.82;4.85;;;;;;;19.89;nan;-24370.41;4893906;29;20191;-54
2022/05/07 11:29:29;;;;;;;8.10;4.80;;;;;;;20.48;nan;-24386.53;4892021;29;20184;-54
2022/05/07 11:31:57;;;;;;;8.70;4.70;;;;;;;20.62;nan;-24390.53;4893208;29;20195;-51
2022/05/07 11:34:31;;;;;;;6.95;5.15;;;;;;;20.45;nan;-24385.81;4894848;29;20223;-51
2022/05/07 11:37:09;;;;;;;8.15;5.20;;;;;;;20.01;nan;-24373.72;4895631;29;20676;-50
2022/05/07 11:39:34;;;;;;;8.27;5.38;;;;;;;19.83;nan;-24368.88;4893948;29;20766;-51
2022/05/07 11:41:59;;;;;;;6.78;5.15;;;;;;;19.51;nan;-24359.97;4893001;29;20203;-49
2022/05/07 11:47:23;;;;;;;8.98;6.43;;;;;;;20.50;nan;-24387.22;4893835;29;20244;-50
2022/05/07 11:50:07;;;;;;;9.38;6.20;;;;;;;19.46;nan;-24358.59;4893592;29;20262;-54
2022/05/07 11:52:33;;;;;;;7.13;5.90;;;;;;;20.36;nan;-24383.19;4892747;29;20739;-50
2022/05/07 11:55:05;;;;;;;11.60;6.95;;;;;;;21.12;nan;-24404.13;4892379;29;20176;-48
2022/05/07 11:57:33;;;;;;;10.45;6.85;;;;;;;21.70;nan;-24420.06;4890677;29;20204;-57
2022/05/07 12:00:20;;;;;;;10.77;6.72;;;;;;;21.12;nan;-24404.28;4895905;29;20240;-54
2022/05/07 12:02:50;;;;;;;8.77;6.72;;;;;;;21.18;nan;-24405.81;4892627;29;20238;-47
2022/05/07 12:05:16;;;;;;;10.60;6.43;;;;;;;20.38;nan;-24383.75;4894508;29;20261;-51
2022/05/07 12:07:47;;;;;;;8.70;6.60;;;;;;;20.76;nan;-24394.28;4892331;29;20196;-50
2022/05/07 12:10:12;;;;;;;9.35;7.18;;;;;;;21.12;nan;-24404.28;4894055;29;20686;-53
2022/05/07 12:12:37;;;;;;;9.05;6.80;;;;;;;20.67;nan;-24391.94;4895537;29;20220;-52
2022/05/07 12:15:03;;;;;;;8.77;7.25;;;;;;;20.85;nan;-24396.78;4891691;29;20683;-50
2022/05/07 12:20:13;;;;;;;8.25;6.25;;;;;;;21.59;nan;-24417.16;4889496;29;20587;-50